»·PEaware :: SWA20 KHOU-KDAL

SWA20 :: KHOU-KDAL

FLIGHT INFORMATION

Flight Status: Arrived
Operator:
Southwest Airlines
More flights by this operator :: More flights under this callsign
Pilot: Drew L. (13237)
Aircraft: BOEING 737-800
(B738)
More flights by this aircraft type
Origin: KHOU Hobby
United States
Destination: KDAL Dallas Love
United States
More flights between these airports :: More routes between these airports
Route: WYLSN7 MAJKK REDDN4
File this flight plan on PilotEdge
Remarks: RMK / SIMBRIEF
Altitude:
(Current/Filed)
28,000ft
Speed:
(Current/Filed)
484kts
Departed: 20-Nov-19 09:44 PM
Arrived: 20-Nov-19 10:30 PM
Distance/Time
Traveled:
208nm/0:46
Distance/Time
To Go:
Arrived

Flight Plot

Page will automatically refresh every two minutes.

Flight plan parsing failed; only flown route is shown


Map Options




Map Legend


Flown Route
Filed Route
Departure Airport
Arrival Airport
Navaid (VOR, NDB)
Fix

Horizontal Profiles

Position Reports

Time Latitude Longitude Heading Altitude Ground
Speed
20-Nov-19 21:26 29.653174 -95.275124 238 52ft 0kts
20-Nov-19 21:27 29.653174 -95.275124 238 52ft 0kts
20-Nov-19 21:27 29.653174 -95.275124 238 52ft 0kts
20-Nov-19 21:29 29.653174 -95.275124 238 52ft 0kts
20-Nov-19 21:29 29.653174 -95.275124 238 52ft 0kts
20-Nov-19 21:30 29.653174 -95.275124 238 52ft 0kts
20-Nov-19 21:31 29.653174 -95.275124 238 51ft 0kts
20-Nov-19 21:32 29.653174 -95.275124 238 51ft 0kts
20-Nov-19 21:33 29.653174 -95.275124 238 51ft 0kts
20-Nov-19 21:34 29.653174 -95.275124 238 51ft 0kts
20-Nov-19 21:35 29.653174 -95.275124 238 51ft 0kts
20-Nov-19 21:36 29.653217 -95.275043 238 52ft 2kts
20-Nov-19 21:37 29.653552 -95.274553 206 52ft 2kts
20-Nov-19 21:38 29.653965 -95.274538 160 52ft 0kts
20-Nov-19 21:39 29.653965 -95.274537 160 51ft 0kts
20-Nov-19 21:40 29.652410 -95.272919 166 51ft 17kts
20-Nov-19 21:41 29.651941 -95.280014 313 51ft 32kts
20-Nov-19 21:42 29.652096 -95.284663 175 51ft 0kts
20-Nov-19 21:43 29.648004 -95.282055 134 51ft 60kts
20-Nov-19 21:44 29.619699 -95.248451 135 1293ft 183kts
20-Nov-19 21:45 29.580128 -95.202095 132 3285ft 224kts
20-Nov-19 21:46 29.587527 -95.128776 43 5564ft 283kts
20-Nov-19 21:47 29.664409 -95.122715 346 8385ft 296kts
20-Nov-19 21:48 29.747097 -95.141953 345 10606ft 325kts
20-Nov-19 21:49 29.839104 -95.163416 345 12976ft 344kts
20-Nov-19 21:50 29.934460 -95.185677 344 15507ft 358kts
20-Nov-19 21:51 30.033285 -95.208800 343 17885ft 371kts
20-Nov-19 21:52 30.136131 -95.232917 342 20085ft 383kts
20-Nov-19 21:53 30.241942 -95.257784 341 22087ft 394kts
20-Nov-19 21:54 30.350768 -95.283415 341 23915ft 404kts
20-Nov-19 21:55 30.461783 -95.309618 340 25584ft 414kts
20-Nov-19 21:56 30.575970 -95.336628 340 27122ft 423kts
20-Nov-19 21:57 30.692558 -95.364300 340 28068ft 437kts
20-Nov-19 21:58 30.814203 -95.393259 340 28067ft 451kts
20-Nov-19 21:59 30.936502 -95.422297 339 28069ft 449kts
20-Nov-19 22:00 31.059199 -95.451531 338 28069ft 450kts
20-Nov-19 22:01 31.175521 -95.479297 337 28065ft 449kts
20-Nov-19 22:02 31.298488 -95.508750 338 28071ft 450kts
20-Nov-19 22:03 31.421768 -95.538360 338 28071ft 451kts
20-Nov-19 22:04 31.541215 -95.575507 325 28076ft 433kts
20-Nov-19 22:05 31.648098 -95.637834 323 28072ft 430kts
20-Nov-19 22:06 31.743343 -95.693713 321 28088ft 402kts
20-Nov-19 22:07 31.845034 -95.754206 322 26171ft 403kts
20-Nov-19 22:08 31.942933 -95.812425 322 24093ft 388kts
20-Nov-19 22:09 32.030005 -95.879685 306 22141ft 362kts
20-Nov-19 22:10 32.099836 -95.962915 306 20168ft 353kts
20-Nov-19 22:11 32.168209 -96.044629 306 18146ft 347kts
20-Nov-19 22:12 32.235191 -96.124869 307 16119ft 339kts
20-Nov-19 22:13 32.300556 -96.203444 308 14097ft 332kts
20-Nov-19 22:14 32.364618 -96.280496 308 12073ft 325kts
20-Nov-19 22:15 32.427666 -96.356508 309 10053ft 324kts
20-Nov-19 22:16 32.497828 -96.416270 321 9225ft 290kts
20-Nov-19 22:17 32.563795 -96.467838 321 9027ft 285kts
20-Nov-19 22:18 32.630505 -96.518567 322 9026ft 285kts
20-Nov-19 22:19 32.697798 -96.568757 323 8611ft 284kts
20-Nov-19 22:20 32.764633 -96.618987 323 7889ft 284kts
20-Nov-19 22:21 32.828609 -96.673063 322 7095ft 281kts
20-Nov-19 22:22 32.891773 -96.721972 322 6290ft 260kts
20-Nov-19 22:23 32.944774 -96.777507 308 5514ft 252kts
20-Nov-19 22:24 32.987805 -96.838353 278 4554ft 216kts
20-Nov-19 22:25 32.960151 -96.893782 223 3604ft 201kts
20-Nov-19 22:26 32.914675 -96.915066 167 2529ft 171kts
20-Nov-19 22:27 32.882161 -96.885497 137 1212ft 138kts
20-Nov-19 22:28 32.854341 -96.853412 136 497ft 132kts
20-Nov-19 22:29 32.844672 -96.843535 238 492ft 11kts
20-Nov-19 22:30 32.847393 -96.847223 315 492ft 20kts
20-Nov-19 22:31 32.846491 -96.848917 179 492ft 0kts
20-Nov-19 22:32 32.846491 -96.848917 179 492ft 0kts
20-Nov-19 22:33 32.846491 -96.848917 179 492ft 0kts
20-Nov-19 22:34 32.846491 -96.848917 179 492ft 0kts

Navigation Log

Ident Type
Flight plan parsing failed, navigation log unavailable